sensor_id;sensor_type;location;lat;lon;timestamp;pressure;altitude;pressure_sealevel;temperature;humidity
50011;BME280;35899;50.352;19.390;2022-11-24T00:02:02;96780.54;;;0.56;98.36
50011;BME280;35899;50.352;19.390;2022-11-24T00:04:28;96794.14;;;0.65;98.53
50011;BME280;35899;50.352;19.390;2022-11-24T00:06:54;96794.50;;;0.66;98.64
50011;BME280;35899;50.352;19.390;2022-11-24T00:09:21;96772.06;;;0.55;98.67
50011;BME280;35899;50.352;19.390;2022-11-24T00:11:47;96803.44;;;0.66;98.79
50011;BME280;35899;50.352;19.390;2022-11-24T00:14:13;96803.44;;;0.66;98.79
50011;BME280;35899;50.352;19.390;2022-11-24T00:16:39;96799.19;;;0.67;98.70
50011;BME280;35899;50.352;19.390;2022-11-24T00:19:07;96801.28;;;0.67;98.75
50011;BME280;35899;50.352;19.390;2022-11-24T00:21:35;96809.40;;;0.67;98.78
50011;BME280;35899;50.352;19.390;2022-11-24T00:24:02;96809.40;;;0.67;98.78
50011;BME280;35899;50.352;19.390;2022-11-24T00:26:31;96808.48;;;0.68;98.80
50011;BME280;35899;50.352;19.390;2022-11-24T00:29:00;96800.73;;;0.61;98.76
50011;BME280;35899;50.352;19.390;2022-11-24T00:31:33;96805.91;;;0.59;98.88
50011;BME280;35899;50.352;19.390;2022-11-24T00:34:07;96805.91;;;0.59;98.88
50011;BME280;35899;50.352;19.390;2022-11-24T00:36:38;96823.52;;;0.65;98.57
50011;BME280;35899;50.352;19.390;2022-11-24T00:39:11;96823.52;;;0.65;98.57
50011;BME280;35899;50.352;19.390;2022-11-24T00:41:39;96820.64;;;0.63;98.58
50011;BME280;35899;50.352;19.390;2022-11-24T00:44:06;96817.86;;;0.50;98.42
50011;BME280;35899;50.352;19.390;2022-11-24T00:46:33;96817.86;;;0.50;98.42
50011;BME280;35899;50.352;19.390;2022-11-24T00:48:59;96836.94;;;0.60;98.59
50011;BME280;35899;50.352;19.390;2022-11-24T00:51:27;96836.94;;;0.60;98.59
50011;BME280;35899;50.352;19.390;2022-11-24T00:53:55;96834.68;;;0.63;98.82
50011;BME280;35899;50.352;19.390;2022-11-24T00:56:23;96835.14;;;0.62;98.78
50011;BME280;35899;50.352;19.390;2022-11-24T00:58:50;96839.72;;;0.64;98.88
50011;BME280;35899;50.352;19.390;2022-11-24T01:01:19;96837.76;;;0.61;98.43
50011;BME280;35899;50.352;19.390;2022-11-24T01:03:47;96837.76;;;0.61;98.43
50011;BME280;35899;50.352;19.390;2022-11-24T01:06:16;96840.31;;;0.61;98.61
50011;BME280;35899;50.352;19.390;2022-11-24T01:08:44;96831.44;;;0.59;98.65
50011;BME280;35899;50.352;19.390;2022-11-24T01:13:44;96833.63;;;0.58;98.68
50011;BME280;35899;50.352;19.390;2022-11-24T01:16:16;96837.83;;;0.59;98.65
50011;BME280;35899;50.352;19.390;2022-11-24T01:18:46;96836.94;;;0.60;98.82
50011;BME280;35899;50.352;19.390;2022-11-24T01:21:13;96840.77;;;0.60;98.79
50011;BME280;35899;50.352;19.390;2022-11-24T01:23:40;96839.50;;;0.60;98.73
50011;BME280;35899;50.352;19.390;2022-11-24T01:26:08;96838.28;;;0.58;98.70
50011;BME280;35899;50.352;19.390;2022-11-24T01:28:36;96838.28;;;0.58;98.70
50011;BME280;35899;50.352;19.390;2022-11-24T01:31:05;96839.10;;;0.59;98.84
50011;BME280;35899;50.352;19.390;2022-11-24T01:33:33;96842.64;;;0.56;98.81
50011;BME280;35899;50.352;19.390;2022-11-24T01:36:00;96842.64;;;0.56;98.81
50011;BME280;35899;50.352;19.390;2022-11-24T01:38:27;96849.02;;;0.56;98.78
50011;BME280;35899;50.352;19.390;2022-11-24T01:41:09;96851.28;;;0.54;98.82
50011;BME280;35899;50.352;19.390;2022-11-24T01:43:38;96851.28;;;0.54;98.82
50011;BME280;35899;50.352;19.390;2022-11-24T01:46:33;96855.05;;;0.55;98.82
50011;BME280;35899;50.352;19.390;2022-11-24T01:49:25;96862.25;;;0.56;99.01
50011;BME280;35899;50.352;19.390;2022-11-24T01:54:40;96865.48;;;0.60;99.14
50011;BME280;35899;50.352;19.390;2022-11-24T01:57:20;96859.53;;;0.59;99.06
50011;BME280;35899;50.352;19.390;2022-11-24T01:59:50;96846.70;;;0.52;99.10
50011;BME280;35899;50.352;19.390;2022-11-24T02:02:21;96865.85;;;0.61;99.03
50011;BME280;35899;50.352;19.390;2022-11-24T02:04:49;96873.45;;;0.62;99.02
50011;BME280;35899;50.352;19.390;2022-11-24T02:07:16;96856.91;;;0.52;98.78
50011;BME280;35899;50.352;19.390;2022-11-24T02:09:58;96856.91;;;0.52;98.78
50011;BME280;35899;50.352;19.390;2022-11-24T02:12:30;96855.18;;;0.52;98.93
50011;BME280;35899;50.352;19.390;2022-11-24T02:14:57;96870.01;;;0.63;99.02
50011;BME280;35899;50.352;19.390;2022-11-24T02:17:24;96872.03;;;0.65;99.10
50011;BME280;35899;50.352;19.390;2022-11-24T02:19:56;96872.39;;;0.66;98.93
50011;BME280;35899;50.352;19.390;2022-11-24T02:25:18;96869.09;;;0.64;98.85
50011;BME280;35899;50.352;19.390;2022-11-24T02:28:01;96869.09;;;0.64;98.85
50011;BME280;35899;50.352;19.390;2022-11-24T02:30:30;96867.45;;;0.63;98.83
50011;BME280;35899;50.352;19.390;2022-11-24T02:32:56;96868.27;;;0.64;99.05
50011;BME280;35899;50.352;19.390;2022-11-24T02:35:25;96869.55;;;0.64;99.23
50011;BME280;35899;50.352;19.390;2022-11-24T02:37:52;96867.28;;;0.66;99.18
50011;BME280;35899;50.352;19.390;2022-11-24T02:40:21;96865.12;;;0.67;99.21
50011;BME280;35899;50.352;19.390;2022-11-24T02:42:51;96865.12;;;0.67;99.12
50011;BME280;35899;50.352;19.390;2022-11-24T02:45:20;96850.69;;;0.57;98.94
50011;BME280;35899;50.352;19.390;2022-11-24T02:47:47;96850.69;;;0.57;98.94
50011;BME280;35899;50.352;19.390;2022-11-24T02:50:13;96858.65;;;0.60;99.00
50011;BME280;35899;50.352;19.390;2022-11-24T02:52:39;96865.48;;;0.68;99.07
50011;BME280;35899;50.352;19.390;2022-11-24T02:55:06;96864.21;;;0.68;99.14
50011;BME280;35899;50.352;19.390;2022-11-24T02:57:32;96864.60;;;0.69;98.91
50011;BME280;35899;50.352;19.390;2022-11-24T02:59:59;96864.60;;;0.69;98.91
50011;BME280;35899;50.352;19.390;2022-11-24T03:02:25;96869.12;;;0.73;99.05
50011;BME280;35899;50.352;19.390;2022-11-24T03:04:51;96859.36;;;0.72;98.90
50011;BME280;35899;50.352;19.390;2022-11-24T03:07:18;96859.36;;;0.72;98.90
50011;BME280;35899;50.352;19.390;2022-11-24T03:09:44;96848.30;;;0.63;98.99
50011;BME280;35899;50.352;19.390;2022-11-24T03:12:10;96863.55;;;0.73;98.78
50011;BME280;35899;50.352;19.390;2022-11-24T03:14:37;96863.55;;;0.73;98.78
50011;BME280;35899;50.352;19.390;2022-11-24T03:17:03;96863.94;;;0.74;98.91
50011;BME280;35899;50.352;19.390;2022-11-24T03:19:29;96863.48;;;0.75;98.86
50011;BME280;35899;50.352;19.390;2022-11-24T03:21:55;96862.56;;;0.76;98.90
50011;BME280;35899;50.352;19.390;2022-11-24T03:24:22;96862.56;;;0.76;98.90
50011;BME280;35899;50.352;19.390;2022-11-24T03:26:48;96860.63;;;0.72;99.04
50011;BME280;35899;50.352;19.390;2022-11-24T03:29:14;96849.80;;;0.67;98.83
50011;BME280;35899;50.352;19.390;2022-11-24T03:31:40;96865.97;;;0.76;98.83
50011;BME280;35899;50.352;19.390;2022-11-24T03:34:06;96870.16;;;0.77;98.80
50011;BME280;35899;50.352;19.390;2022-11-24T03:36:33;96870.16;;;0.77;98.80
50011;BME280;35899;50.352;19.390;2022-11-24T03:38:59;96860.70;;;0.71;98.84
50011;BME280;35899;50.352;19.390;2022-11-24T03:41:26;96870.16;;;0.77;98.69
50011;BME280;35899;50.352;19.390;2022-11-24T03:43:52;96873.17;;;0.77;98.62
50011;BME280;35899;50.352;19.390;2022-11-24T03:46:18;96876.55;;;0.77;98.73
50011;BME280;35899;50.352;19.390;2022-11-24T03:48:45;96852.72;;;0.68;98.72
50011;BME280;35899;50.352;19.390;2022-11-24T03:51:11;96852.72;;;0.68;98.72
50011;BME280;35899;50.352;19.390;2022-11-24T03:53:37;96877.30;;;0.80;98.84
50011;BME280;35899;50.352;19.390;2022-11-24T03:56:04;96876.41;;;0.81;98.86
50011;BME280;35899;50.352;19.390;2022-11-24T03:58:30;96880.60;;;0.82;98.84
50011;BME280;35899;50.352;19.390;2022-11-24T04:00:57;96879.27;;;0.83;98.94
50011;BME280;35899;50.352;19.390;2022-11-24T04:03:23;96881.36;;;0.84;98.86
50011;BME280;35899;50.352;19.390;2022-11-24T04:05:50;96888.59;;;0.84;98.67
50011;BME280;35899;50.352;19.390;2022-11-24T04:08:17;96888.59;;;0.84;98.67
50011;BME280;35899;50.352;19.390;2022-11-24T04:10:47;96893.31;;;0.83;98.46
50011;BME280;35899;50.352;19.390;2022-11-24T04:13:17;96893.31;;;0.83;98.46
50011;BME280;35899;50.352;19.390;2022-11-24T04:15:45;96896.69;;;0.84;98.39
50011;BME280;35899;50.352;19.390;2022-11-24T04:18:11;96894.98;;;0.84;98.53
50011;BME280;35899;50.352;19.390;2022-11-24T04:20:38;96894.98;;;0.84;98.53
50011;BME280;35899;50.352;19.390;2022-11-24T04:23:05;96896.19;;;0.86;98.67
50011;BME280;35899;50.352;19.390;2022-11-24T04:25:32;96897.37;;;0.87;98.59
50011;BME280;35899;50.352;19.390;2022-11-24T04:27:59;96871.28;;;0.72;98.57
50011;BME280;35899;50.352;19.390;2022-11-24T04:30:26;96896.26;;;0.84;98.24
50011;BME280;35899;50.352;19.390;2022-11-24T04:32:53;96896.26;;;0.84;98.24
50011;BME280;35899;50.352;19.390;2022-11-24T04:35:20;96897.96;;;0.84;98.32
50011;BME280;35899;50.352;19.390;2022-11-24T04:37:46;96897.60;;;0.83;98.33
50011;BME280;35899;50.352;19.390;2022-11-24T04:40:13;96904.28;;;0.85;98.55
50011;BME280;35899;50.352;19.390;2022-11-24T04:42:40;96904.28;;;0.85;98.55
50011;BME280;35899;50.352;19.390;2022-11-24T04:45:07;96908.11;;;0.76;98.43
50011;BME280;35899;50.352;19.390;2022-11-24T04:47:34;96908.11;;;0.76;98.43
50011;BME280;35899;50.352;19.390;2022-11-24T04:50:00;96889.39;;;0.67;98.10
50011;BME280;35899;50.352;19.390;2022-11-24T04:52:28;96917.28;;;0.81;98.15
50011;BME280;35899;50.352;19.390;2022-11-24T04:54:55;96919.84;;;0.81;98.21
50011;BME280;35899;50.352;19.390;2022-11-24T04:57:23;96922.92;;;0.78;98.18
50011;BME280;35899;50.352;19.390;2022-11-24T04:59:51;96919.09;;;0.78;98.15
50011;BME280;35899;50.352;19.390;2022-11-24T05:02:18;96905.59;;;0.66;98.31
50011;BME280;35899;50.352;19.390;2022-11-24T05:04:45;96905.59;;;0.66;98.31
50011;BME280;35899;50.352;19.390;2022-11-24T05:07:12;96921.84;;;0.74;98.50
50011;BME280;35899;50.352;19.390;2022-11-24T05:09:40;96923.28;;;0.80;98.72
50011;BME280;35899;50.352;19.390;2022-11-24T05:12:06;96930.75;;;0.84;98.85
50011;BME280;35899;50.352;19.390;2022-11-24T05:14:32;96930.28;;;0.85;98.79
50011;BME280;35899;50.352;19.390;2022-11-24T05:16:58;96932.84;;;0.85;98.70
50011;BME280;35899;50.352;19.390;2022-11-24T05:19:25;96935.40;;;0.85;98.65
50011;BME280;35899;50.352;19.390;2022-11-24T05:21:51;96935.79;;;0.86;98.73
50011;BME280;35899;50.352;19.390;2022-11-24T05:24:17;96934.88;;;0.87;98.64
50011;BME280;35899;50.352;19.390;2022-11-24T05:26:43;96939.98;;;0.87;98.81
50011;BME280;35899;50.352;19.390;2022-11-24T05:29:10;96939.98;;;0.87;98.81
50011;BME280;35899;50.352;19.390;2022-11-24T05:31:36;96937.72;;;0.89;98.79
50011;BME280;35899;50.352;19.390;2022-11-24T05:34:02;96938.18;;;0.89;98.71
50011;BME280;35899;50.352;19.390;2022-11-24T05:36:28;96940.67;;;0.90;98.70
50011;BME280;35899;50.352;19.390;2022-11-24T05:38:55;96943.16;;;0.92;98.73
50011;BME280;35899;50.352;19.390;2022-11-24T05:41:21;96942.41;;;0.90;98.62
50011;BME280;35899;50.352;19.390;2022-11-24T05:43:47;96938.84;;;0.84;98.25
50011;BME280;35899;50.352;19.390;2022-11-24T05:46:14;96938.84;;;0.84;98.25
50011;BME280;35899;50.352;19.390;2022-11-24T05:48:40;96950.33;;;0.84;98.34
50011;BME280;35899;50.352;19.390;2022-11-24T05:51:06;96948.30;;;0.82;98.26
50011;BME280;35899;50.352;19.390;2022-11-24T05:53:32;96954.69;;;0.82;98.42
50011;BME280;35899;50.352;19.390;2022-11-24T05:56:03;96955.54;;;0.82;98.53
50011;BME280;35899;50.352;19.390;2022-11-24T05:58:30;96947.84;;;0.73;98.49
50011;BME280;35899;50.352;19.390;2022-11-24T06:00:56;96947.84;;;0.73;98.49
50011;BME280;35899;50.352;19.390;2022-11-24T06:03:23;96965.30;;;0.83;98.38
50011;BME280;35899;50.352;19.390;2022-11-24T06:05:49;96964.91;;;0.82;98.45
50011;BME280;35899;50.352;19.390;2022-11-24T06:08:15;96972.05;;;0.84;98.58
50011;BME280;35899;50.352;19.390;2022-11-24T06:10:42;96973.33;;;0.84;98.51
50011;BME280;35899;50.352;19.390;2022-11-24T06:13:08;96978.44;;;0.84;98.44
50011;BME280;35899;50.352;19.390;2022-11-24T06:15:34;96969.42;;;0.76;98.36
50011;BME280;35899;50.352;19.390;2022-11-24T06:18:01;96988.30;;;0.83;98.39
50011;BME280;35899;50.352;19.390;2022-11-24T06:20:27;96987.90;;;0.82;98.28
50011;BME280;35899;50.352;19.390;2022-11-24T06:22:59;96987.99;;;0.80;98.15
50011;BME280;35899;50.352;19.390;2022-11-24T06:25:25;96975.58;;;0.72;98.20
50011;BME280;35899;50.352;19.390;2022-11-24T06:27:52;96983.83;;;0.77;98.25
50011;BME280;35899;50.352;19.390;2022-11-24T06:30:18;96990.61;;;0.78;98.35
50011;BME280;35899;50.352;19.390;2022-11-24T06:32:45;96995.56;;;0.82;98.45
50011;BME280;35899;50.352;19.390;2022-11-24T06:35:11;96991.73;;;0.82;98.50
50011;BME280;35899;50.352;19.390;2022-11-24T06:37:38;96994.28;;;0.82;98.41
50011;BME280;35899;50.352;19.390;2022-11-24T06:40:06;96989.93;;;0.84;98.49
50011;BME280;35899;50.352;19.390;2022-11-24T06:42:33;96996.25;;;0.85;98.58
50011;BME280;35899;50.352;19.390;2022-11-24T06:44:59;96992.81;;;0.86;98.29
50011;BME280;35899;50.352;19.390;2022-11-24T06:47:26;96999.20;;;0.86;98.29
50011;BME280;35899;50.352;19.390;2022-11-24T06:49:52;96987.59;;;0.79;98.34
50011;BME280;35899;50.352;19.390;2022-11-24T06:52:18;96991.50;;;0.77;98.32
50011;BME280;35899;50.352;19.390;2022-11-24T06:54:45;97011.00;;;0.89;98.37
50011;BME280;35899;50.352;19.390;2022-11-24T06:57:11;97008.50;;;0.87;98.40
50011;BME280;35899;50.352;19.390;2022-11-24T06:59:37;97014.47;;;0.88;98.17
50011;BME280;35899;50.352;19.390;2022-11-24T07:02:04;97014.47;;;0.88;98.17
50011;BME280;35899;50.352;19.390;2022-11-24T07:04:30;97014.89;;;0.87;98.19
50011;BME280;35899;50.352;19.390;2022-11-24T07:06:56;97013.94;;;0.90;98.26
50011;BME280;35899;50.352;19.390;2022-11-24T07:09:22;97013.42;;;0.92;98.34
50011;BME280;35899;50.352;19.390;2022-11-24T07:11:49;97015.75;;;0.96;98.35
50011;BME280;35899;50.352;19.390;2022-11-24T07:14:15;96992.81;;;0.86;98.35
50011;BME280;35899;50.352;19.390;2022-11-24T07:16:41;97023.45;;;1.05;98.44
50011;BME280;35899;50.352;19.390;2022-11-24T07:19:08;97023.69;;;1.09;98.29
50011;BME280;35899;50.352;19.390;2022-11-24T07:21:35;97014.19;;;1.03;97.94
50011;BME280;35899;50.352;19.390;2022-11-24T07:24:01;97014.19;;;1.03;97.94
50011;BME280;35899;50.352;19.390;2022-11-24T07:26:28;97028.80;;;1.09;97.73
50011;BME280;35899;50.352;19.390;2022-11-24T07:28:55;97028.80;;;1.09;97.73
50011;BME280;35899;50.352;19.390;2022-11-24T07:31:22;97023.30;;;1.08;97.81
50011;BME280;35899;50.352;19.390;2022-11-24T07:33:49;97035.87;;;1.13;97.95
50011;BME280;35899;50.352;19.390;2022-11-24T07:36:17;97035.87;;;1.13;97.95
50011;BME280;35899;50.352;19.390;2022-11-24T07:38:44;97031.98;;;1.14;97.80
50011;BME280;35899;50.352;19.390;2022-11-24T07:41:12;97021.26;;;1.06;97.51
50011;BME280;35899;50.352;19.390;2022-11-24T07:43:40;97021.26;;;1.06;97.51
50011;BME280;35899;50.352;19.390;2022-11-24T07:46:09;97034.01;;;1.16;97.58
50011;BME280;35899;50.352;19.390;2022-11-24T07:48:38;97033.84;;;1.20;97.54
50011;BME280;35899;50.352;19.390;2022-11-24T07:51:05;97038.08;;;1.21;97.48
50011;BME280;35899;50.352;19.390;2022-11-24T07:53:32;97041.39;;;1.23;97.48
50011;BME280;35899;50.352;19.390;2022-11-24T07:56:01;97043.87;;;1.24;97.27
50011;BME280;35899;50.352;19.390;2022-11-24T07:58:31;97026.11;;;1.12;97.06
50011;BME280;35899;50.352;19.390;2022-11-24T08:00:59;97036.63;;;1.24;97.30
50011;BME280;35899;50.352;19.390;2022-11-24T08:03:28;97049.45;;;1.32;97.27
50011;BME280;35899;50.352;19.390;2022-11-24T08:05:59;97034.70;;;1.29;97.17
50011;BME280;35899;50.352;19.390;2022-11-24T08:08:25;97054.59;;;1.41;97.17
50011;BME280;35899;50.352;19.390;2022-11-24T08:10:52;97054.82;;;1.45;97.05
50011;BME280;35899;50.352;19.390;2022-11-24T08:13:18;97053.02;;;1.47;96.82
50011;BME280;35899;50.352;19.390;2022-11-24T08:15:45;97056.19;;;1.52;96.93
50011;BME280;35899;50.352;19.390;2022-11-24T08:18:11;97058.91;;;1.58;96.91
50011;BME280;35899;50.352;19.390;2022-11-24T08:20:37;97047.67;;;1.52;96.48
50011;BME280;35899;50.352;19.390;2022-11-24T08:23:04;97060.41;;;1.62;96.84
50011;BME280;35899;50.352;19.390;2022-11-24T08:25:30;97055.98;;;1.66;96.90
50011;BME280;35899;50.352;19.390;2022-11-24T08:28:02;97060.56;;;1.68;96.62
50011;BME280;35899;50.352;19.390;2022-11-24T08:30:27;97060.92;;;1.69;96.51
50011;BME280;35899;50.352;19.390;2022-11-24T08:32:53;97065.69;;;1.68;96.43
50011;BME280;35899;50.352;19.390;2022-11-24T08:35:20;97058.69;;;1.71;96.85
50011;BME280;35899;50.352;19.390;2022-11-24T08:37:46;97065.38;;;1.74;96.65
50011;BME280;35899;50.352;19.390;2022-11-24T08:40:13;97067.02;;;1.75;96.49
50011;BME280;35899;50.352;19.390;2022-11-24T08:42:39;97071.03;;;1.72;96.23
50011;BME280;35899;50.352;19.390;2022-11-24T08:45:08;97073.58;;;1.72;96.17
50011;BME280;35899;50.352;19.390;2022-11-24T08:47:35;97072.77;;;1.71;96.16
50011;BME280;35899;50.352;19.390;2022-11-24T08:50:01;97079.81;;;1.75;96.44
50011;BME280;35899;50.352;19.390;2022-11-24T08:52:27;97077.88;;;1.71;96.16
50011;BME280;35899;50.352;19.390;2022-11-24T08:54:54;97080.77;;;1.64;95.77
50011;BME280;35899;50.352;19.390;2022-11-24T08:57:20;97081.40;;;1.60;96.04
50011;BME280;35899;50.352;19.390;2022-11-24T08:59:47;97092.16;;;1.58;96.22
50011;BME280;35899;50.352;19.390;2022-11-24T09:02:13;97090.19;;;1.54;96.17
50011;BME280;35899;50.352;19.390;2022-11-24T09:04:39;97090.63;;;1.54;96.29
50011;BME280;35899;50.352;19.390;2022-11-24T09:07:05;97095.73;;;1.54;96.46
50011;BME280;35899;50.352;19.390;2022-11-24T09:09:32;97091.30;;;1.58;96.55
50011;BME280;35899;50.352;19.390;2022-11-24T09:11:58;97087.11;;;1.56;96.51
50011;BME280;35899;50.352;19.390;2022-11-24T09:14:24;97083.80;;;1.54;96.31
50011;BME280;35899;50.352;19.390;2022-11-24T09:16:50;97090.19;;;1.54;96.33
50011;BME280;35899;50.352;19.390;2022-11-24T09:19:17;97085.89;;;1.55;96.38
50011;BME280;35899;50.352;19.390;2022-11-24T09:21:43;97083.80;;;1.54;96.32
50011;BME280;35899;50.352;19.390;2022-11-24T09:24:09;97084.69;;;1.53;96.13
50011;BME280;35899;50.352;19.390;2022-11-24T09:26:37;97085.97;;;1.53;96.30
50011;BME280;35899;50.352;19.390;2022-11-24T09:29:05;97087.17;;;1.55;96.32
50011;BME280;35899;50.352;19.390;2022-11-24T09:31:33;97095.14;;;1.58;96.33
50011;BME280;35899;50.352;19.390;2022-11-24T09:34:06;97089.89;;;1.61;96.40
50011;BME280;35899;50.352;19.390;2022-11-24T09:36:31;97092.81;;;1.62;96.02
50011;BME280;35899;50.352;19.390;2022-11-24T09:38:57;97091.17;;;1.61;95.98
50011;BME280;35899;50.352;19.390;2022-11-24T09:47:15;97089.73;;;1.64;96.07
50011;BME280;35899;50.352;19.390;2022-11-24T09:50:01;97090.88;;;1.67;96.07
50011;BME280;35899;50.352;19.390;2022-11-24T09:52:53;97089.82;;;1.71;96.04
50011;BME280;35899;50.352;19.390;2022-11-24T09:58:23;97084.41;;;1.77;96.08
50011;BME280;35899;50.352;19.390;2022-11-24T10:00:56;97084.66;;;1.81;96.08
50011;BME280;35899;50.352;19.390;2022-11-24T10:03:39;97086.76;;;1.82;95.93
50011;BME280;35899;50.352;19.390;2022-11-24T10:06:30;97084.34;;;1.79;95.71
50011;BME280;35899;50.352;19.390;2022-11-24T10:28:54;97092.72;;;1.46;95.42
50011;BME280;35899;50.352;19.390;2022-11-24T10:31:35;97094.45;;;1.45;95.91
50011;BME280;35899;50.352;19.390;2022-11-24T10:34:16;97087.90;;;1.40;95.76
50011;BME280;35899;50.352;19.390;2022-11-24T10:37:05;97091.27;;;1.31;95.73
50011;BME280;35899;50.352;19.390;2022-11-24T10:39:53;97097.40;;;1.27;95.80
50011;BME280;35899;50.352;19.390;2022-11-24T10:42:32;97094.55;;;1.25;96.17
50011;BME280;35899;50.352;19.390;2022-11-24T10:45:11;97099.42;;;1.21;96.12
50011;BME280;35899;50.352;19.390;2022-11-24T10:47:41;97098.21;;;1.19;96.30
50011;BME280;35899;50.352;19.390;2022-11-24T10:50:26;97102.05;;;1.19;96.42
50011;BME280;35899;50.352;19.390;2022-11-24T10:53:08;97099.31;;;1.13;96.36
50011;BME280;35899;50.352;19.390;2022-11-24T10:58:36;97094.73;;;1.11;96.95
50011;BME280;35899;50.352;19.390;2022-11-24T11:03:50;97100.72;;;1.10;96.86
50011;BME280;35899;50.352;19.390;2022-11-24T11:06:23;97096.06;;;1.10;96.95
50011;BME280;35899;50.352;19.390;2022-11-24T11:11:41;97103.27;;;1.02;96.84
50011;BME280;35899;50.352;19.390;2022-11-24T11:14:09;97104.23;;;0.99;97.17
50011;BME280;35899;50.352;19.390;2022-11-24T11:16:51;97101.88;;;0.94;97.00
50011;BME280;35899;50.352;19.390;2022-11-24T11:19:36;97104.83;;;0.95;97.27
50011;BME280;35899;50.352;19.390;2022-11-24T11:24:43;97107.11;;;0.91;97.18
50011;BME280;35899;50.352;19.390;2022-11-24T11:29:47;97085.49;;;0.80;97.41
50011;BME280;35899;50.352;19.390;2022-11-24T11:32:20;97085.49;;;0.80;97.41
50011;BME280;35899;50.352;19.390;2022-11-24T11:34:56;97082.36;;;0.83;97.49
50011;BME280;35899;50.352;19.390;2022-11-24T11:37:25;97096.72;;;1.05;97.71
50011;BME280;35899;50.352;19.390;2022-11-24T11:39:54;97096.72;;;1.05;97.71
50011;BME280;35899;50.352;19.390;2022-11-24T11:50:39;97107.27;;;1.26;96.95
50011;BME280;35899;50.352;19.390;2022-11-24T12:10:52;97112.30;;;1.55;96.36
50011;BME280;35899;50.352;19.390;2022-11-24T12:13:47;97110.78;;;1.51;96.20
50011;BME280;35899;50.352;19.390;2022-11-24T12:22:12;97112.65;;;1.39;96.34
50011;BME280;35899;50.352;19.390;2022-11-24T12:30:16;97117.95;;;1.34;96.47
50011;BME280;35899;50.352;19.390;2022-11-24T12:33:04;97120.45;;;1.17;96.32
50011;BME280;35899;50.352;19.390;2022-11-24T12:35:48;97120.45;;;1.17;96.32
50011;BME280;35899;50.352;19.390;2022-11-24T12:43:57;97123.98;;;0.95;97.11
50011;BME280;35899;50.352;19.390;2022-11-24T12:52:34;97133.23;;;0.98;97.43
50011;BME280;35899;50.352;19.390;2022-11-24T12:55:02;97139.67;;;1.07;97.55
50011;BME280;35899;50.352;19.390;2022-11-24T12:57:33;97141.55;;;1.12;97.49
50011;BME280;35899;50.352;19.390;2022-11-24T13:00:22;97141.55;;;1.12;97.49
50011;BME280;35899;50.352;19.390;2022-11-24T13:03:08;97145.89;;;1.20;97.29
50011;BME280;35899;50.352;19.390;2022-11-24T13:05:55;97145.73;;;1.23;96.98
50011;BME280;35899;50.352;19.390;2022-11-24T13:08:28;97151.31;;;1.23;96.71
50011;BME280;35899;50.352;19.390;2022-11-24T13:13:58;97136.97;;;1.10;96.86
50011;BME280;35899;50.352;19.390;2022-11-24T13:16:26;97151.83;;;1.21;96.86
50011;BME280;35899;50.352;19.390;2022-11-24T13:18:56;97142.53;;;1.09;96.86
50011;BME280;35899;50.352;19.390;2022-11-24T13:24:20;97157.81;;;1.01;96.78
50011;BME280;35899;50.352;19.390;2022-11-24T13:26:54;97170.22;;;1.00;97.00
50011;BME280;35899;50.352;19.390;2022-11-24T13:29:45;97173.36;;;0.96;97.23
50011;BME280;35899;50.352;19.390;2022-11-24T13:42:28;97166.69;;;0.73;97.58
50011;BME280;35899;50.352;19.390;2022-11-24T13:44:57;97191.33;;;0.84;97.68
50011;BME280;35899;50.352;19.390;2022-11-24T13:47:43;97192.27;;;0.82;97.52
50011;BME280;35899;50.352;19.390;2022-11-24T13:50:22;97194.13;;;0.78;97.52
50011;BME280;35899;50.352;19.390;2022-11-24T13:53:08;97198.88;;;0.77;97.62
50011;BME280;35899;50.352;19.390;2022-11-24T13:55:38;97196.52;;;0.72;97.58
50011;BME280;35899;50.352;19.390;2022-11-24T14:06:44;97205.69;;;0.46;98.41
50011;BME280;35899;50.352;19.390;2022-11-24T14:12:17;97226.31;;;0.51;98.35
50011;BME280;35899;50.352;19.390;2022-11-24T14:14:52;97226.91;;;0.48;98.56
50011;BME280;35899;50.352;19.390;2022-11-24T14:17:24;97235.91;;;0.46;98.70
50011;BME280;35899;50.352;19.390;2022-11-24T14:19:53;97242.03;;;0.42;98.75
50011;BME280;35899;50.352;19.390;2022-11-24T14:22:36;97242.03;;;0.42;98.75
50011;BME280;35899;50.352;19.390;2022-11-24T14:25:04;97253.06;;;0.43;98.96
50011;BME280;35899;50.352;19.390;2022-11-24T14:27:34;97253.12;;;0.41;99.04
50011;BME280;35899;50.352;19.390;2022-11-24T14:32:40;97257.46;;;0.39;99.27
50011;BME280;35899;50.352;19.390;2022-11-24T14:35:29;97262.11;;;0.39;99.42
50011;BME280;35899;50.352;19.390;2022-11-24T14:38:01;97268.95;;;0.39;99.45
50011;BME280;35899;50.352;19.390;2022-11-24T14:43:31;97269.97;;;0.35;99.51
50011;BME280;35899;50.352;19.390;2022-11-24T14:46:00;97270.84;;;0.34;99.64
50011;BME280;35899;50.352;19.390;2022-11-24T14:48:31;97251.69;;;0.24;99.62
50011;BME280;35899;50.352;19.390;2022-11-24T14:53:45;97273.91;;;0.32;99.84
50011;BME280;35899;50.352;19.390;2022-11-24T14:56:33;97275.18;;;0.32;100.00
50011;BME280;35899;50.352;19.390;2022-11-24T14:59:01;97275.18;;;0.32;100.00
50011;BME280;35899;50.352;19.390;2022-11-24T15:01:32;97280.34;;;0.30;100.00
50011;BME280;35899;50.352;19.390;2022-11-24T15:06:58;97286.41;;;0.28;100.00
50011;BME280;35899;50.352;19.390;2022-11-24T15:09:33;97293.70;;;0.27;100.00
50011;BME280;35899;50.352;19.390;2022-11-24T15:12:07;97297.58;;;0.25;100.00
50011;BME280;35899;50.352;19.390;2022-11-24T15:15:21;97301.56;;;0.21;100.00
50011;BME280;35899;50.352;19.390;2022-11-24T15:17:24;97301.56;;;0.21;100.00
50011;BME280;35899;50.352;19.390;2022-11-24T15:20:02;97300.19;;;0.24;100.00
50011;BME280;35899;50.352;19.390;2022-11-24T15:22:35;97307.39;;;0.24;100.00
50011;BME280;35899;50.352;19.390;2022-11-24T15:25:38;97309.17;;;0.22;100.00
50011;BME280;35899;50.352;19.390;2022-11-24T15:27:50;97312.63;;;0.21;100.00
50011;BME280;35899;50.352;19.390;2022-11-24T15:30:17;97310.95;;;0.20;100.00
50011;BME280;35899;50.352;19.390;2022-11-24T15:32:57;97316.94;;;0.19;100.00